PWSweather.com
Personal Weather Stations
Station Observations
REUBENS
Camas Prairie, Reubens, ID

Camas PrairieReubens, ID

Lat: 46.35417, Lon: -116.53167

Elevation: 3480

Station Type: Davis VantagePro 2

http://www.theobrienranch.com/wx/wx.htm

High Low Average
Temperature 97.6°F36.4°F 60.4°F15.8°F 80.1°F26.7°F
Dew Point 44.3°F6.8°F 29.0°F-1.7°F 37.4°F3.0°F
Winds 8.2 mph NW13.2 mph NW Calm Calm 2.0 mph 3.2 mph
Wind Gusts 10.0 mph16.1 mph -- 4.0 mph6.4 mph
Humidity 39% 14% 23%
Pressure 29.85 in1010.80 in 29.69 in1005.40 in -
Precipitation 0.00 in0.00 in - -
Hour Temp Dew Point Humidity Winds Wind Gusts Pressure Precip Precip Rate Daily Precip Total
12:00 AM 64.4°F18.0°C 35.4°F1.9°C 34% 3.7 mph NW6.0 kmh NW 4.0 mph6.4 kmh 29.84 in1010.5 mb - 0.00 in0.0 mm 0.00 in0.0 mm
12:30 AM 65.7°F18.7°C 35.8°F2.1°C 33% 3.5 mph NW5.6 kmh NW 4.0 mph6.4 kmh 29.82 in1009.8 mb - 0.00 in0.0 mm 0.00 in0.0 mm
01:00 AM 64.5°F18.1°C 34.0°F1.1°C 32% 2.1 mph W3.4 kmh W 3.0 mph4.8 kmh 29.82 in1009.8 mb - 0.00 in0.0 mm 0.00 in0.0 mm
01:30 AM 66.3°F19.1°C 34.7°F1.5°C 31% 3.7 mph W6.0 kmh W 5.0 mph8.0 kmh 29.81 in1009.5 mb - 0.00 in0.0 mm 0.00 in0.0 mm
02:00 AM 63.2°F17.3°C 33.6°F0.9°C 33% 0.5 mph W0.8 kmh W 1.0 mph1.6 kmh 29.82 in1009.8 mb - 0.00 in0.0 mm 0.00 in0.0 mm
02:30 AM 61.8°F16.6°C 34.5°F1.4°C 36% 3.3 mph W5.3 kmh W 4.0 mph6.4 kmh 29.83 in1010.2 mb - 0.00 in0.0 mm 0.00 in0.0 mm
03:00 AM 66.6°F19.2°C 34.2°F1.2°C 30% 0.5 mph W0.8 kmh W 2.0 mph3.2 kmh 29.79 in1008.8 mb - 0.00 in0.0 mm 0.00 in0.0 mm
03:30 AM 62.8°F17.1°C 34.7°F1.5°C 35% 3.4 mph W5.5 kmh W 4.0 mph6.4 kmh 29.80 in1009.1 mb - 0.00 in0.0 mm 0.00 in0.0 mm
04:00 AM 62.0°F16.7°C 34.8°F1.6°C 36% Calm Calm -- 29.81 in1009.5 mb - 0.00 in0.0 mm 0.00 in0.0 mm
04:30 AM 61.9°F16.6°C 34.6°F1.4°C 36% 3.2 mph W5.1 kmh W 4.0 mph6.4 kmh 29.80 in1009.1 mb - 0.00 in0.0 mm 0.00 in0.0 mm
05:00 AM 60.7°F15.9°C 33.6°F0.9°C 36% 0.3 mph W0.5 kmh W 1.0 mph1.6 kmh 29.81 in1009.5 mb - 0.00 in0.0 mm 0.00 in0.0 mm
05:30 AM 61.7°F16.5°C 34.5°F1.4°C 36% 1.2 mph W1.9 kmh W 3.0 mph4.8 kmh 29.81 in1009.5 mb - 0.00 in0.0 mm 0.00 in0.0 mm
06:00 AM 61.4°F16.3°C 34.9°F1.6°C 37% 1.7 mph W2.7 kmh W 3.0 mph4.8 kmh 29.83 in1010.2 mb - 0.00 in0.0 mm 0.00 in0.0 mm
06:30 AM 60.4°F15.8°C 35.3°F1.8°C 39% 2.5 mph W4.0 kmh W 3.0 mph4.8 kmh 29.84 in1010.5 mb - 0.00 in0.0 mm 0.00 in0.0 mm
07:00 AM 64.9°F18.3°C 36.5°F2.5°C 35% 1.1 mph SW1.8 kmh SW 2.0 mph3.2 kmh 29.85 in1010.8 mb - 0.00 in0.0 mm 0.00 in0.0 mm
07:30 AM 73.4°F23.0°C 43.3°F6.3°C 34% Calm Calm -- 29.82 in1009.8 mb - 0.00 in0.0 mm 0.00 in0.0 mm
08:00 AM 84.9°F29.4°C 41.8°F5.4°C 22% Calm Calm 1.0 mph1.6 kmh 29.81 in1009.5 mb - 0.00 in0.0 mm 0.00 in0.0 mm
08:30 AM 86.3°F30.2°C 40.5°F4.7°C 20% 2.2 mph N3.5 kmh N 3.0 mph4.8 kmh 29.81 in1009.5 mb - 0.00 in0.0 mm 0.00 in0.0 mm
09:00 AM 87.6°F30.9°C 41.6°F5.3°C 20% 0.8 mph N1.3 kmh N 5.0 mph8.0 kmh 29.82 in1009.8 mb - 0.00 in0.0 mm 0.00 in0.0 mm
09:30 AM 88.7°F31.5°C 41.1°F5.1°C 19% 2.7 mph N4.3 kmh N 4.0 mph6.4 kmh 29.81 in1009.5 mb - 0.00 in0.0 mm 0.00 in0.0 mm
10:00 AM 90.7°F32.6°C 41.4°F5.2°C 18% 0.5 mph N0.8 kmh N 3.0 mph4.8 kmh 29.83 in1010.2 mb - 0.00 in0.0 mm 0.00 in0.0 mm
10:30 AM 90.5°F32.5°C 41.2°F5.1°C 18% 1.3 mph NW2.1 kmh NW 4.0 mph6.4 kmh 29.83 in1010.2 mb - 0.00 in0.0 mm 0.00 in0.0 mm
11:00 AM 92.1°F33.4°C 42.5°F5.8°C 18% 2.6 mph NW4.2 kmh NW 9.0 mph14.5 kmh 29.83 in1010.2 mb - 0.00 in0.0 mm 0.00 in0.0 mm
11:30 AM 92.6°F33.7°C 42.9°F6.1°C 18% 2.1 mph NNW3.4 kmh NNW 9.0 mph14.5 kmh 29.82 in1009.8 mb - 0.00 in0.0 mm 0.00 in0.0 mm
12:00 PM 93.8°F34.3°C 40.8°F4.9°C 16% 1.0 mph NW1.6 kmh NW 1.0 mph1.6 kmh 29.81 in1009.5 mb - 0.00 in0.0 mm 0.00 in0.0 mm
12:30 PM 95.5°F35.3°C 42.2°F5.7°C 16% 2.6 mph NNE4.2 kmh NNE 4.0 mph6.4 kmh 29.80 in1009.1 mb - 0.00 in0.0 mm 0.00 in0.0 mm
01:00 PM 94.1°F34.5°C 42.6°F5.9°C 17% 1.1 mph NW1.8 kmh NW 3.0 mph4.8 kmh 29.81 in1009.5 mb - 0.00 in0.0 mm 0.00 in0.0 mm
01:30 PM 91.7°F33.2°C 40.7°F4.8°C 17% 2.5 mph NNW4.0 kmh NNW 8.0 mph12.9 kmh 29.81 in1009.5 mb - 0.00 in0.0 mm 0.00 in0.0 mm
02:00 PM 94.3°F34.6°C 44.3°F6.8°C 18% 0.7 mph NW1.1 kmh NW 7.0 mph11.3 kmh 29.78 in1008.5 mb - 0.00 in0.0 mm 0.00 in0.0 mm
02:30 PM 95.9°F35.5°C 44.1°F6.7°C 17% 6.3 mph NW10.1 kmh NW 8.0 mph12.9 kmh 29.77 in1008.1 mb - 0.00 in0.0 mm 0.00 in0.0 mm
03:00 PM 95.9°F35.5°C 44.1°F6.7°C 17% 0.8 mph NW1.3 kmh NW 5.0 mph8.0 kmh 29.77 in1008.1 mb - 0.00 in0.0 mm 0.00 in0.0 mm
03:30 PM 96.5°F35.8°C 43.0°F6.1°C 16% 2.0 mph NW3.2 kmh NW 4.0 mph6.4 kmh 29.76 in1007.8 mb - 0.00 in0.0 mm 0.00 in0.0 mm
04:00 PM 97.6°F36.4°C 43.9°F6.6°C 16% 1.2 mph NW1.9 kmh NW 4.0 mph6.4 kmh 29.75 in1007.5 mb - 0.00 in0.0 mm 0.00 in0.0 mm
04:30 PM 96.7°F35.9°C 41.4°F5.2°C 15% 8.2 mph NW13.2 kmh NW 10.0 mph16.1 kmh 29.75 in1007.5 mb - 0.00 in0.0 mm 0.00 in0.0 mm
05:00 PM 96.6°F35.9°C 39.6°F4.2°C 14% 3.9 mph NW6.3 kmh NW 9.0 mph14.5 kmh 29.74 in1007.1 mb - 0.00 in0.0 mm 0.00 in0.0 mm
05:30 PM 94.5°F34.7°C 39.7°F4.3°C 15% 1.0 mph N1.6 kmh N 7.0 mph11.3 kmh 29.75 in1007.5 mb - 0.00 in0.0 mm 0.00 in0.0 mm
06:00 PM 94.2°F34.6°C 37.7°F3.2°C 14% 2.4 mph NNW3.9 kmh NNW 6.0 mph9.7 kmh 29.73 in1006.8 mb - 0.00 in0.0 mm 0.00 in0.0 mm
06:30 PM 91.3°F32.9°C 37.2°F2.9°C 15% 4.6 mph NW7.4 kmh NW 9.0 mph14.5 kmh 29.74 in1007.1 mb - 0.00 in0.0 mm 0.00 in0.0 mm
07:00 PM 88.4°F31.3°C 34.9°F1.6°C 15% 6.1 mph NW9.8 kmh NW 9.0 mph14.5 kmh 29.69 in1005.4 mb - 0.00 in0.0 mm 0.00 in0.0 mm
07:30 PM 85.8°F29.9°C 34.4°F1.3°C 16% 3.0 mph N4.8 kmh N 4.0 mph6.4 kmh 29.69 in1005.4 mb - 0.00 in0.0 mm 0.00 in0.0 mm
08:00 PM 82.6°F28.1°C 34.8°F1.6°C 18% Calm Calm -- 29.70 in1005.8 mb - 0.00 in0.0 mm 0.00 in0.0 mm
08:30 PM 79.4°F26.3°C 32.2°F0.1°C 18% Calm Calm -- 29.71 in1006.1 mb - 0.00 in0.0 mm 0.00 in0.0 mm
09:00 PM 77.7°F25.4°C 30.8°F-0.7°C 18% Calm Calm -- 29.71 in1006.1 mb - 0.00 in0.0 mm 0.00 in0.0 mm
09:30 PM 77.5°F25.3°C 30.6°F-0.8°C 18% Calm Calm -- 29.72 in1006.4 mb - 0.00 in0.0 mm 0.00 in0.0 mm
10:00 PM 70.6°F21.4°C 29.9°F-1.2°C 22% 2.3 mph NNW3.7 kmh NNW 3.0 mph4.8 kmh 29.75 in1007.5 mb - 0.00 in0.0 mm 0.00 in0.0 mm
10:30 PM 68.9°F20.5°C 29.6°F-1.3°C 23% 0.2 mph NNW0.3 kmh NNW 2.0 mph3.2 kmh 29.75 in1007.5 mb - 0.00 in0.0 mm 0.00 in0.0 mm
11:00 PM 75.6°F24.2°C 29.0°F-1.7°C 18% 1.6 mph NNW2.6 kmh NNW 2.0 mph3.2 kmh 29.71 in1006.1 mb - 0.00 in0.0 mm 0.00 in0.0 mm
11:30 PM 74.0°F23.3°C 29.1°F-1.6°C 19% 2.5 mph WSW4.0 kmh WSW 4.0 mph6.4 kmh 29.72 in1006.4 mb - 0.00 in0.0 mm 0.00 in0.0 mm